TimePDT,TemperatureF,Dew PointF,Humidity,Sea Level PressureIn,VisibilityMPH,Wind Direction,Wind SpeedMPH,Gust SpeedMPH,PrecipitationIn,Events,Conditions,WindDirDegrees,DateUTC
12:56 AM,69.1,28.0,22,29.82,10.0,SW,5.8,-,N/A,,Partly Cloudy,220,2012-10-08 07:56:00
1:56 AM,69.1,28.0,22,29.82,10.0,SSW,9.2,-,N/A,,Partly Cloudy,200,2012-10-08 08:56:00
2:56 AM,66.9,28.0,23,29.81,10.0,SSW,9.2,-,N/A,,Partly Cloudy,200,2012-10-08 09:56:00
3:56 AM,66.0,30.0,26,29.81,10.0,SSW,6.9,-,N/A,,Partly Cloudy,210,2012-10-08 10:56:00
4:56 AM,64.9,32.0,29,29.82,10.0,SW,5.8,-,N/A,,Partly Cloudy,230,2012-10-08 11:56:00
5:56 AM,64.0,30.9,29,29.83,10.0,SSW,10.4,-,N/A,,Partly Cloudy,200,2012-10-08 12:56:00
6:56 AM,64.9,30.9,28,29.85,10.0,SSW,6.9,-,N/A,,Scattered Clouds,200,2012-10-08 13:56:00
7:56 AM,69.1,28.9,22,29.86,10.0,SW,4.6,-,N/A,,Scattered Clouds,230,2012-10-08 14:56:00
8:56 AM,73.0,32.0,22,29.87,10.0,Calm,Calm,-,N/A,,Scattered Clouds,0,2012-10-08 15:56:00
9:56 AM,75.9,28.9,18,29.86,10.0,Variable,3.5,-,N/A,,Scattered Clouds,0,2012-10-08 16:56:00
10:56 AM,78.1,30.0,17,29.85,10.0,Calm,Calm,-,N/A,,Scattered Clouds,0,2012-10-08 17:56:00
11:56 AM,82.0,30.0,15,29.83,10.0,Calm,Calm,-,N/A,,Scattered Clouds,0,2012-10-08 18:56:00
12:56 PM,84.2,32.0,15,29.86,10.0,SE,6.9,-,N/A,,Partly Cloudy,140,2012-10-08 19:56:00
1:56 PM,87.1,33.1,15,29.76,10.0,Variable,4.6,-,N/A,,Scattered Clouds,0,2012-10-08 20:56:00
2:56 PM,89.1,30.0,12,29.74,10.0,SSW,8.1,20.7,N/A,,Scattered Clouds,210,2012-10-08 21:56:00
3:56 PM,90.0,26.1,10,29.73,10.0,SW,13.8,-,N/A,,Partly Cloudy,230,2012-10-08 22:56:00
4:56 PM,88.0,21.0,9,29.73,10.0,SW,16.1,23.0,N/A,,Partly Cloudy,230,2012-10-08 23:56:00
5:56 PM,86.0,19.4,9,29.80,10.0,SW,16.1,23.0,N/A,,Partly Cloudy,220,2012-10-09 00:56:00
6:56 PM,82.4,21.2,10,29.80,10.0,SSW,15.0,-,N/A,,Partly Cloudy,210,2012-10-09 01:56:00
7:56 PM,82.0,21.0,10,29.76,10.0,South,8.1,-,N/A,,Clear,180,2012-10-09 02:56:00
8:56 PM,79.0,24.1,13,29.77,10.0,South,9.2,-,N/A,,Clear,190,2012-10-09 03:56:00
9:56 PM,78.1,25.0,14,29.77,10.0,South,12.7,-,N/A,,Partly Cloudy,180,2012-10-09 04:56:00
10:56 PM,78.1,26.1,15,29.78,10.0,SSW,8.1,-,N/A,,Scattered Clouds,200,2012-10-09 05:56:00
11:56 PM,78.1,27.0,15,29.77,10.0,SSW,8.1,18.4,N/A,,Scattered Clouds,210,2012-10-09 06:56:00